createdAt,value
2019-06-15T00:01:18.844Z,13.22
2019-06-15T00:03:48.328Z,13.16
2019-06-15T00:06:17.661Z,13.16
2019-06-15T00:08:47.034Z,13.20
2019-06-15T00:11:16.421Z,13.20
2019-06-15T00:13:45.781Z,13.18
2019-06-15T00:16:15.155Z,13.18
2019-06-15T00:18:44.477Z,13.18
2019-06-15T00:21:13.850Z,13.18
2019-06-15T00:23:43.185Z,13.18
2019-06-15T00:26:12.539Z,13.19
2019-06-15T00:28:42.014Z,13.20
2019-06-15T00:31:11.394Z,13.20
2019-06-15T00:33:40.773Z,13.20
2019-06-15T00:36:10.109Z,13.20
2019-06-15T00:38:39.468Z,13.20
2019-06-15T00:41:08.809Z,13.20
2019-06-15T00:43:38.160Z,13.21
2019-06-15T00:46:07.513Z,13.21
2019-06-15T00:48:36.870Z,13.18
2019-06-15T00:51:06.199Z,13.17
2019-06-15T00:53:35.568Z,13.17
2019-06-15T00:56:04.940Z,13.21
2019-06-15T00:58:34.307Z,13.21
2019-06-15T01:01:03.749Z,13.21
2019-06-15T01:03:33.229Z,13.21
2019-06-15T01:06:02.565Z,13.21
2019-06-15T01:08:31.945Z,13.21
2019-06-15T01:11:01.259Z,13.20
2019-06-15T01:13:30.610Z,13.18
2019-06-15T01:15:59.991Z,13.22
2019-06-15T01:18:29.318Z,13.21
2019-06-15T01:20:58.654Z,13.21
2019-06-15T01:23:28.023Z,13.21
2019-06-15T01:25:57.399Z,13.22
2019-06-15T01:28:26.737Z,13.21
2019-06-15T01:30:56.088Z,13.21
2019-06-15T01:33:25.473Z,13.21
2019-06-15T01:35:54.809Z,13.22
2019-06-15T01:38:24.166Z,13.22
2019-06-15T01:40:53.527Z,13.22
2019-06-15T01:43:22.946Z,13.18
2019-06-15T01:45:52.317Z,13.18
2019-06-15T01:48:21.685Z,13.21
2019-06-15T01:50:51.034Z,13.16
2019-06-15T01:53:20.365Z,13.13
2019-06-15T01:55:49.727Z,13.16
2019-06-15T01:58:19.073Z,13.16
2019-06-15T02:00:48.410Z,13.15
2019-06-15T02:03:17.759Z,13.11
2019-06-15T02:05:47.147Z,13.11
2019-06-15T02:08:16.481Z,13.13
2019-06-15T02:10:45.961Z,13.08
2019-06-15T02:13:15.326Z,13.11
2019-06-15T02:15:44.677Z,13.10
2019-06-15T02:18:14.047Z,13.09
2019-06-15T02:20:43.410Z,13.07
2019-06-15T02:23:12.782Z,13.07
2019-06-15T02:25:42.111Z,13.07
2019-06-15T02:28:18.582Z,13.02
2019-06-15T02:30:47.924Z,13.05
2019-06-15T02:33:17.312Z,13.02
2019-06-15T02:35:46.678Z,13.03
2019-06-15T02:38:16.029Z,13.03
2019-06-15T02:40:45.649Z,13.00
2019-06-15T02:43:14.975Z,13.00
2019-06-15T02:45:44.332Z,12.99
2019-06-15T02:48:13.757Z,12.97
2019-06-15T02:50:43.197Z,12.94
2019-06-15T02:53:12.542Z,12.96
2019-06-15T02:55:50.187Z,12.96
2019-06-15T02:58:12.990Z,12.94
2019-06-15T03:00:49.404Z,12.91
2019-06-15T03:03:18.757Z,12.93
2019-06-15T03:05:48.291Z,12.91
2019-06-15T03:08:18.220Z,12.92
2019-06-15T03:10:47.570Z,12.90
2019-06-15T03:13:17.978Z,12.87
2019-06-15T03:15:48.283Z,12.87
2019-06-15T03:18:17.642Z,12.86
2019-06-15T03:20:46.981Z,12.86
2019-06-15T03:23:16.330Z,12.84
2019-06-15T03:25:45.677Z,12.84
2019-06-15T03:28:15.018Z,12.82
2019-06-15T03:30:44.377Z,12.82
2019-06-15T03:33:13.714Z,12.84
2019-06-15T03:35:43.062Z,12.79
2019-06-15T03:38:12.442Z,12.79
2019-06-15T03:40:42.963Z,12.82
2019-06-15T03:43:12.391Z,12.81
2019-06-15T03:45:41.720Z,12.81
2019-06-15T03:48:11.305Z,12.79
2019-06-15T03:50:40.628Z,12.77
2019-06-15T03:53:10.040Z,12.79
2019-06-15T03:55:40.577Z,12.78
2019-06-15T03:58:10.000Z,12.77
2019-06-15T04:01:11.156Z,12.77
2019-06-15T04:03:40.514Z,12.77
2019-06-15T04:06:09.863Z,12.75
2019-06-15T04:08:39.274Z,12.75
2019-06-15T04:11:08.615Z,12.75
2019-06-15T04:13:37.943Z,12.76
2019-06-15T04:16:07.292Z,12.75
2019-06-15T04:18:36.708Z,12.73
2019-06-15T04:21:06.087Z,12.73
2019-06-15T04:23:35.445Z,12.74
2019-06-15T04:26:04.808Z,12.74
2019-06-15T04:28:34.211Z,12.74
2019-06-15T04:31:03.608Z,12.75
2019-06-15T04:33:32.931Z,12.72
2019-06-15T04:36:02.249Z,12.71
2019-06-15T04:38:31.626Z,12.71
2019-06-15T04:41:01.749Z,12.75
2019-06-15T04:43:31.235Z,12.74
2019-06-15T04:46:00.593Z,12.69
2019-06-15T04:48:29.933Z,12.72
2019-06-15T04:50:59.301Z,12.72
2019-06-15T04:53:28.735Z,12.72
2019-06-15T04:55:58.103Z,12.71
2019-06-15T04:58:27.431Z,12.67
2019-06-15T05:00:56.780Z,12.67
2019-06-15T05:03:26.182Z,12.66
2019-06-15T05:05:55.551Z,12.69
2019-06-15T05:08:24.931Z,12.65
2019-06-15T05:10:59.682Z,12.65
2019-06-15T05:13:25.330Z,12.65
2019-06-15T05:15:54.688Z,12.66
2019-06-15T05:18:24.025Z,12.65
2019-06-15T05:20:53.370Z,12.64
2019-06-15T05:23:22.729Z,12.67
2019-06-15T05:25:52.064Z,12.66
2019-06-15T05:28:21.400Z,12.66
2019-06-15T05:30:50.783Z,12.68
2019-06-15T05:33:20.123Z,12.68
2019-06-15T05:35:49.454Z,12.65
2019-06-15T05:38:18.830Z,12.65
2019-06-15T05:40:48.199Z,12.63
2019-06-15T05:43:17.564Z,12.63
2019-06-15T05:45:46.922Z,12.59
2019-06-15T05:48:16.301Z,12.63
2019-06-15T05:50:45.635Z,12.59
2019-06-15T05:53:14.969Z,12.59
2019-06-15T05:55:44.681Z,12.64
2019-06-15T05:58:14.019Z,12.64
2019-06-15T06:00:43.360Z,12.69
2019-06-15T06:03:12.812Z,12.69
2019-06-15T06:05:42.197Z,12.70
2019-06-15T06:08:11.610Z,12.70
2019-06-15T06:10:40.924Z,12.72
2019-06-15T06:13:10.279Z,12.68
2019-06-15T06:15:39.600Z,12.74
2019-06-15T06:18:08.948Z,12.75
2019-06-15T06:20:41.620Z,12.76
2019-06-15T06:23:10.963Z,12.74
2019-06-15T06:25:40.333Z,12.78
2019-06-15T06:28:09.690Z,12.78
2019-06-15T06:30:39.037Z,12.82
2019-06-15T06:33:08.397Z,12.87
2019-06-15T06:35:37.834Z,12.87
2019-06-15T06:38:07.197Z,12.91
2019-06-15T06:40:36.579Z,12.91
2019-06-15T06:43:05.927Z,12.93
2019-06-15T06:45:35.314Z,12.97
2019-06-15T06:48:04.932Z,13.00
2019-06-15T06:50:34.286Z,13.01
2019-06-15T06:53:03.658Z,13.02
2019-06-15T06:55:33.007Z,13.01
2019-06-15T06:58:02.363Z,13.07
2019-06-15T07:00:31.722Z,13.08
2019-06-15T07:03:01.061Z,13.11
2019-06-15T07:05:30.447Z,13.15
2019-06-15T07:07:59.816Z,13.20
2019-06-15T07:10:29.152Z,13.23
2019-06-15T07:12:58.567Z,13.23
2019-06-15T07:15:28.430Z,13.29
2019-06-15T07:17:57.754Z,13.36
2019-06-15T07:20:27.137Z,13.38
2019-06-15T07:22:56.452Z,13.40
2019-06-15T07:25:25.779Z,13.44
2019-06-15T07:28:07.633Z,13.48
2019-06-15T07:30:26.287Z,13.52
2019-06-15T07:32:55.673Z,13.58
2019-06-15T07:35:25.063Z,13.65
2019-06-15T07:37:54.388Z,13.65
2019-06-15T07:40:23.830Z,13.67
2019-06-15T07:42:53.229Z,13.68
2019-06-15T07:45:22.589Z,13.69
2019-06-15T07:47:51.953Z,13.73
2019-06-15T07:50:21.306Z,13.76
2019-06-15T07:52:50.658Z,13.79
2019-06-15T07:55:20.009Z,13.82
2019-06-15T07:57:49.351Z,13.85
2019-06-15T08:00:19.416Z,13.86
2019-06-15T08:02:48.779Z,13.89
2019-06-15T08:05:18.343Z,13.89
2019-06-15T08:07:47.695Z,13.87
2019-06-15T08:10:17.062Z,13.86
2019-06-15T08:12:46.428Z,13.89
2019-06-15T08:15:16.283Z,13.88
2019-06-15T08:17:45.862Z,13.90
2019-06-15T08:20:18.176Z,13.89
2019-06-15T08:22:47.513Z,13.89
2019-06-15T08:25:16.941Z,13.91
2019-06-15T08:27:46.350Z,13.96
2019-06-15T08:30:16.068Z,14.01
2019-06-15T08:32:45.383Z,14.03
2019-06-15T08:35:14.761Z,14.05
2019-06-15T08:37:44.114Z,14.07
2019-06-15T08:40:13.589Z,14.04
2019-06-15T08:42:42.923Z,13.99
2019-06-15T08:45:12.580Z,13.94
2019-06-15T08:47:41.907Z,13.92
2019-06-15T08:50:12.470Z,13.94
2019-06-15T08:52:41.811Z,13.96
2019-06-15T08:55:11.135Z,13.98
2019-06-15T08:57:40.789Z,14.01
2019-06-15T09:00:11.180Z,14.04
2019-06-15T09:02:40.512Z,14.06
2019-06-15T09:05:10.262Z,14.06
2019-06-15T09:07:39.616Z,14.10
2019-06-15T09:10:09.591Z,14.14
2019-06-15T09:12:38.931Z,14.17
2019-06-15T09:15:08.590Z,14.23
2019-06-15T09:17:37.922Z,14.23
2019-06-15T09:20:09.571Z,14.27
2019-06-15T09:22:38.916Z,14.33
2019-06-15T09:25:08.671Z,14.37
2019-06-15T09:27:38.022Z,14.43
2019-06-15T09:30:07.726Z,14.46
2019-06-15T09:32:37.080Z,14.49
2019-06-15T09:35:06.750Z,14.52
2019-06-15T09:37:36.119Z,14.54
2019-06-15T09:40:06.543Z,14.54
2019-06-15T09:42:35.918Z,14.54
2019-06-15T09:45:05.686Z,14.55
2019-06-15T09:47:35.049Z,14.53
2019-06-15T09:50:04.639Z,14.57
2019-06-15T09:52:33.999Z,14.59
2019-06-15T09:55:03.316Z,14.60
2019-06-15T09:57:32.676Z,14.59
2019-06-15T10:00:02.509Z,14.61
2019-06-15T10:02:32.381Z,14.62
2019-06-15T10:05:01.749Z,14.67
2019-06-15T10:07:31.099Z,14.77
2019-06-15T10:10:00.466Z,14.77
2019-06-15T10:12:29.836Z,14.88
2019-06-15T10:14:59.155Z,14.94
2019-06-15T10:17:28.489Z,14.98
2019-06-15T10:19:59.925Z,15.00
2019-06-15T10:22:29.249Z,15.01
2019-06-15T10:24:58.576Z,15.01
2019-06-15T10:27:27.952Z,15.00
2019-06-15T10:29:57.282Z,15.01
2019-06-15T10:32:26.634Z,14.97
2019-06-15T10:34:56.005Z,14.90
2019-06-15T10:37:25.367Z,14.90
2019-06-15T10:39:54.715Z,14.90
2019-06-15T10:42:24.059Z,14.90
2019-06-15T10:44:54.949Z,14.92
2019-06-15T10:47:24.385Z,14.94
2019-06-15T10:49:53.716Z,14.92
2019-06-15T10:52:23.084Z,14.93
2019-06-15T10:54:52.412Z,14.98
2019-06-15T10:57:21.736Z,15.01
2019-06-15T10:59:57.338Z,15.03
2019-06-15T11:02:22.151Z,15.06
2019-06-15T11:04:51.484Z,15.07
2019-06-15T11:07:20.863Z,15.05
2019-06-15T11:09:50.216Z,15.06
2019-06-15T11:12:20.094Z,15.12
2019-06-15T11:14:49.436Z,15.21
2019-06-15T11:17:18.793Z,15.26
2019-06-15T11:19:48.146Z,15.25
2019-06-15T11:22:17.519Z,15.24
2019-06-15T11:24:46.903Z,15.28
2019-06-15T11:27:16.276Z,15.25
2019-06-15T11:29:45.681Z,15.25
2019-06-15T11:32:15.035Z,15.28
2019-06-15T11:34:44.405Z,15.27
2019-06-15T11:37:13.815Z,15.30
2019-06-15T11:39:43.142Z,15.32
2019-06-15T11:42:12.520Z,15.35
2019-06-15T11:44:41.850Z,15.38
2019-06-15T11:47:11.231Z,15.43
2019-06-15T11:49:41.610Z,15.43
2019-06-15T11:52:10.974Z,15.43
2019-06-15T11:54:40.378Z,15.51
2019-06-15T11:57:09.779Z,15.61
2019-06-15T11:59:39.151Z,15.69
2019-06-15T12:02:08.536Z,15.86
2019-06-15T12:04:37.891Z,15.91
2019-06-15T12:07:07.282Z,15.84
2019-06-15T12:09:36.631Z,15.78
2019-06-15T12:12:05.967Z,15.90
2019-06-15T12:14:36.206Z,16.02
2019-06-15T12:17:05.639Z,16.12
2019-06-15T12:19:35.015Z,16.23
2019-06-15T12:22:04.386Z,16.22
2019-06-15T12:24:33.722Z,16.35
2019-06-15T12:27:03.085Z,16.48
2019-06-15T12:29:32.563Z,16.72
2019-06-15T12:32:02.054Z,16.80
2019-06-15T12:34:31.439Z,16.80
2019-06-15T12:37:00.792Z,16.93
2019-06-15T12:39:30.160Z,16.96
2019-06-15T12:42:01.482Z,16.96
2019-06-15T12:44:30.866Z,17.02
2019-06-15T12:47:00.235Z,17.25
2019-06-15T12:49:30.364Z,17.25
2019-06-15T12:51:59.737Z,17.26
2019-06-15T12:54:29.066Z,17.27
2019-06-15T12:56:58.427Z,17.34
2019-06-15T12:59:27.811Z,17.46
2019-06-15T13:01:57.169Z,17.51
2019-06-15T13:04:26.558Z,17.58
2019-06-15T13:06:55.929Z,17.66
2019-06-15T13:09:25.289Z,17.75
2019-06-15T13:11:54.682Z,17.72
2019-06-15T13:14:24.041Z,17.63
2019-06-15T13:16:53.367Z,17.58
2019-06-15T13:19:22.746Z,17.61
2019-06-15T13:21:52.052Z,17.65
2019-06-15T13:24:21.406Z,17.60
2019-06-15T13:26:50.825Z,17.67
2019-06-15T13:29:20.112Z,17.56
2019-06-15T13:31:49.475Z,17.34
2019-06-15T13:34:18.801Z,17.07
2019-06-15T13:36:48.172Z,16.92
2019-06-15T13:39:17.515Z,16.84
2019-06-15T13:41:47.022Z,16.75
2019-06-15T13:44:16.370Z,16.68
2019-06-15T13:46:45.688Z,16.82
2019-06-15T13:49:15.030Z,17.05
2019-06-15T13:51:44.429Z,17.37
2019-06-15T13:54:13.776Z,17.50
2019-06-15T13:56:43.162Z,17.63
2019-06-15T13:59:12.512Z,17.75
2019-06-15T14:01:41.850Z,17.77
2019-06-15T14:04:11.248Z,17.87
2019-06-15T14:06:40.613Z,17.99
2019-06-15T14:09:09.949Z,18.19
2019-06-15T14:11:39.368Z,18.31
2019-06-15T14:14:08.801Z,18.29
2019-06-15T14:16:38.135Z,18.28
2019-06-15T14:19:07.498Z,18.18
2019-06-15T14:21:36.865Z,18.20
2019-06-15T14:24:06.188Z,18.30
2019-06-15T14:26:35.547Z,18.35
2019-06-15T14:29:04.938Z,18.44
2019-06-15T14:31:46.707Z,18.53
2019-06-15T14:34:05.400Z,18.56
2019-06-15T14:36:34.781Z,18.62
2019-06-15T14:39:05.609Z,18.65
2019-06-15T14:41:35.342Z,18.43
2019-06-15T14:44:04.719Z,18.29
2019-06-15T14:46:34.057Z,18.32
2019-06-15T14:49:03.415Z,18.40
2019-06-15T14:51:32.770Z,18.45
2019-06-15T14:54:02.175Z,18.43
2019-06-15T14:56:31.559Z,18.47
2019-06-15T14:59:00.921Z,18.47
2019-06-15T15:01:30.277Z,18.47
2019-06-15T15:03:59.627Z,18.15
2019-06-15T15:06:29.038Z,17.93
2019-06-15T15:08:58.392Z,17.65
2019-06-15T15:11:27.786Z,17.64
2019-06-15T15:13:57.227Z,17.55
2019-06-15T15:16:26.599Z,18.21
2019-06-15T15:18:56.757Z,18.49
2019-06-15T15:21:26.590Z,18.58
2019-06-15T15:23:57.107Z,18.62
2019-06-15T15:26:26.709Z,18.55
2019-06-15T15:28:56.587Z,18.46
2019-06-15T15:31:27.232Z,18.51
2019-06-15T15:33:56.798Z,18.56
2019-06-15T15:36:26.663Z,18.55
2019-06-15T15:38:56.220Z,18.54
2019-06-15T15:41:26.574Z,18.51
2019-06-15T15:43:56.171Z,18.51
2019-06-15T15:46:25.724Z,18.66
2019-06-15T15:48:56.882Z,18.80
2019-06-15T15:51:26.351Z,18.84
2019-06-15T15:53:56.695Z,18.96
2019-06-15T15:56:27.253Z,19.10
2019-06-15T16:02:47.683Z,19.30
2019-06-15T16:05:09.170Z,19.26
2019-06-15T16:07:38.651Z,19.37
2019-06-15T16:10:08.400Z,19.47
2019-06-15T16:12:37.910Z,19.51
2019-06-15T16:15:07.574Z,19.57
2019-06-15T16:17:37.364Z,19.65
2019-06-15T16:20:08.815Z,19.66
2019-06-15T16:22:38.217Z,19.71
2019-06-15T16:25:07.592Z,19.86
2019-06-15T16:27:37.193Z,20.01
2019-06-15T16:30:07.408Z,20.02
2019-06-15T16:32:37.187Z,20.05
2019-06-15T16:35:07.002Z,20.13
2019-06-15T16:37:36.370Z,20.17
2019-06-15T16:40:06.329Z,20.22
2019-06-15T16:42:36.538Z,20.25
2019-06-15T16:45:07.012Z,20.00
2019-06-15T16:47:36.582Z,19.86
2019-06-15T16:50:06.978Z,19.85
2019-06-15T16:52:36.720Z,19.87
2019-06-15T16:55:10.587Z,19.77
2019-06-15T16:57:37.816Z,19.70
2019-06-15T17:00:13.268Z,19.51
2019-06-15T17:02:42.702Z,19.40
2019-06-15T17:05:12.063Z,19.29
2019-06-15T17:07:41.427Z,19.07
2019-06-15T17:10:11.644Z,19.01
2019-06-15T17:12:41.102Z,19.20
2019-06-15T17:15:11.184Z,19.33
2019-06-15T17:17:40.994Z,19.40
2019-06-15T17:20:10.804Z,19.36
2019-06-15T17:22:40.171Z,19.33
2019-06-15T17:25:09.976Z,19.17
2019-06-15T17:27:39.378Z,19.14
2019-06-15T17:30:08.939Z,19.05
2019-06-15T17:32:38.254Z,18.94
2019-06-15T17:35:07.711Z,18.83
2019-06-15T17:37:37.035Z,18.68
2019-06-15T17:40:07.057Z,18.57
2019-06-15T17:42:37.028Z,18.43
2019-06-15T17:45:06.934Z,18.40
2019-06-15T17:47:36.242Z,18.38
2019-06-15T17:50:07.757Z,18.20
2019-06-15T17:52:37.090Z,18.07
2019-06-15T17:55:07.919Z,17.98
2019-06-15T17:57:37.262Z,17.92
2019-06-15T18:00:09.056Z,17.85
2019-06-15T18:02:38.915Z,17.69
2019-06-15T18:05:09.008Z,17.65
2019-06-15T18:07:38.432Z,17.65
2019-06-15T18:10:08.756Z,17.63
2019-06-15T18:12:38.222Z,17.64
2019-06-15T18:15:08.307Z,17.65
2019-06-15T18:17:37.730Z,17.56
2019-06-15T18:20:07.690Z,17.53
2019-06-15T18:22:37.097Z,17.51
2019-06-15T18:25:06.809Z,17.45
2019-06-15T18:27:37.276Z,17.38
2019-06-15T18:30:06.975Z,17.24
2019-06-15T18:32:37.863Z,17.12
2019-06-15T18:35:08.928Z,17.01
2019-06-15T18:37:38.318Z,17.00
2019-06-15T18:40:08.003Z,16.96
2019-06-15T18:42:37.367Z,16.93
2019-06-15T18:45:07.121Z,16.87
2019-06-15T18:47:36.679Z,16.80
2019-06-15T18:50:07.535Z,16.72
2019-06-15T18:52:37.806Z,16.71
2019-06-15T18:55:07.886Z,16.64
2019-06-15T18:57:37.549Z,16.56
2019-06-15T19:00:07.530Z,16.48
2019-06-15T19:02:36.932Z,16.37
2019-06-15T19:05:08.087Z,16.30
2019-06-15T19:07:37.868Z,16.24
2019-06-15T19:10:08.393Z,16.20
2019-06-15T19:12:37.745Z,16.07
2019-06-15T19:15:07.551Z,16.07
2019-06-15T19:17:37.281Z,16.05
2019-06-15T19:20:07.584Z,16.00
2019-06-15T19:22:36.905Z,15.94
2019-06-15T19:25:06.297Z,15.87
2019-06-15T19:27:36.625Z,15.80
2019-06-15T19:30:06.721Z,15.76
2019-06-15T19:32:36.840Z,15.72
2019-06-15T19:35:06.393Z,15.72
2019-06-15T19:37:37.046Z,15.76
2019-06-15T19:40:07.231Z,15.73
2019-06-15T19:42:36.718Z,15.71
2019-06-15T19:45:10.244Z,15.70
2019-06-15T19:47:37.997Z,15.65
2019-06-15T19:50:10.035Z,15.69
2019-06-15T19:52:38.888Z,15.73
2019-06-15T19:55:08.479Z,15.74
2019-06-15T19:57:37.815Z,15.77
2019-06-15T20:00:09.914Z,15.77
2019-06-15T20:02:39.243Z,15.74
2019-06-15T20:05:08.730Z,15.73
2019-06-15T20:07:38.267Z,15.67
2019-06-15T20:10:10.650Z,15.66
2019-06-15T20:12:40.162Z,15.63
2019-06-15T20:15:09.811Z,15.60
2019-06-15T20:17:39.182Z,15.60
2019-06-15T20:20:09.836Z,15.57
2019-06-15T20:22:39.186Z,15.54
2019-06-15T20:25:09.385Z,15.46
2019-06-15T20:27:40.760Z,15.46
2019-06-15T20:30:10.206Z,15.41
2019-06-15T20:32:39.535Z,15.39
2019-06-15T20:35:17.438Z,15.39
2019-06-15T20:37:40.609Z,15.41
2019-06-15T20:40:11.395Z,15.41
2019-06-15T20:42:40.751Z,15.42
2019-06-15T20:45:10.560Z,15.41
2019-06-15T20:47:40.898Z,15.41
2019-06-15T20:50:24.593Z,15.42
2019-06-15T20:52:43.707Z,15.42
2019-06-15T20:55:16.109Z,15.42
2019-06-15T20:57:46.073Z,15.37
2019-06-15T21:00:16.709Z,15.38
2019-06-15T21:02:46.071Z,15.27
2019-06-15T21:05:32.579Z,15.22
2019-06-15T21:07:46.818Z,15.22
2019-06-15T21:10:16.767Z,15.21
2019-06-15T21:12:47.016Z,15.17
2019-06-15T21:15:16.756Z,15.14
2019-06-15T21:17:46.662Z,15.13
2019-06-15T21:20:17.485Z,15.09
2019-06-15T21:22:46.817Z,15.07
2019-06-15T21:25:17.520Z,15.05
2019-06-15T21:27:47.412Z,15.04
2019-06-15T21:30:17.952Z,14.93
2019-06-15T21:32:47.267Z,14.93
2019-06-15T21:35:16.739Z,14.93
2019-06-15T21:37:46.459Z,14.92
2019-06-15T21:40:18.539Z,14.91
2019-06-15T21:42:47.979Z,14.90
2019-06-15T21:45:17.393Z,14.89
2019-06-15T21:47:46.752Z,14.88
2019-06-15T21:50:16.283Z,14.83
2019-06-15T21:52:46.049Z,14.83
2019-06-15T21:55:16.086Z,14.82
2019-06-15T21:57:45.439Z,14.79
2019-06-15T22:00:18.946Z,14.77
2019-06-15T22:02:48.300Z,14.74
2019-06-15T22:05:17.723Z,14.71
2019-06-15T22:07:47.632Z,14.65
2019-06-15T22:10:18.307Z,14.61
2019-06-15T22:12:47.954Z,14.57
2019-06-15T22:15:17.388Z,14.53
2019-06-15T22:17:46.793Z,14.49
2019-06-15T22:20:16.891Z,14.46
2019-06-15T22:22:47.022Z,14.43
2019-06-15T22:25:16.576Z,14.39
2019-06-15T22:27:46.809Z,14.34
2019-06-15T22:30:17.090Z,14.29
2019-06-15T22:32:47.322Z,14.27
2019-06-15T22:35:17.804Z,14.25
2019-06-15T22:37:47.137Z,14.23
2019-06-15T22:40:16.679Z,14.20
2019-06-15T22:42:47.056Z,14.18
2019-06-15T22:45:17.257Z,14.15
2019-06-15T22:47:46.917Z,14.13
2019-06-15T22:50:16.307Z,14.10
2019-06-15T22:52:47.331Z,14.06
2019-06-15T22:55:16.809Z,14.03
2019-06-15T22:57:46.292Z,14.01
2019-06-15T23:00:17.330Z,13.96
2019-06-15T23:02:46.651Z,13.91
2019-06-15T23:05:17.144Z,13.89
2019-06-15T23:07:47.219Z,13.87
2019-06-15T23:10:16.867Z,13.85
2019-06-15T23:12:46.521Z,13.83
2019-06-15T23:15:17.381Z,13.81
2019-06-15T23:17:46.984Z,13.81
2019-06-15T23:20:17.081Z,13.80
2019-06-15T23:22:46.908Z,13.78
2019-06-15T23:25:18.366Z,13.76
2019-06-15T23:27:47.698Z,13.74
2019-06-15T23:30:17.170Z,13.72
2019-06-15T23:32:47.078Z,13.70
2019-06-15T23:35:16.888Z,13.69
2019-06-15T23:37:46.613Z,13.67
2019-06-15T23:40:19.683Z,13.66
2019-06-15T23:42:49.763Z,13.67
2019-06-15T23:45:20.275Z,13.66
2019-06-15T23:47:49.645Z,13.65
2019-06-15T23:50:19.670Z,13.64
2019-06-15T23:52:49.391Z,13.63
2019-06-15T23:55:19.408Z,13.62
2019-06-15T23:57:48.755Z,13.61
